sensor_id;sensor_type;location;lat;lon;timestamp;P1;durP1;ratioP1;P2;durP2;ratioP2
76475;SDS011;65308;50.078;14.854;2024-03-17T00:00:59;11.00;;;4.30;;
76475;SDS011;65308;50.078;14.854;2024-03-17T00:03:26;6.47;;;3.20;;
76475;SDS011;65308;50.078;14.854;2024-03-17T00:05:56;8.68;;;3.42;;
76475;SDS011;65308;50.078;14.854;2024-03-17T00:08:23;6.45;;;3.13;;
76475;SDS011;65308;50.078;14.854;2024-03-17T00:10:49;5.82;;;3.15;;
76475;SDS011;65308;50.078;14.854;2024-03-17T00:13:16;7.50;;;4.03;;
76475;SDS011;65308;50.078;14.854;2024-03-17T00:15:42;7.40;;;3.40;;
76475;SDS011;65308;50.078;14.854;2024-03-17T00:18:09;7.55;;;3.33;;
76475;SDS011;65308;50.078;14.854;2024-03-17T00:20:35;5.38;;;3.13;;
76475;SDS011;65308;50.078;14.854;2024-03-17T00:23:04;7.43;;;3.28;;
76475;SDS011;65308;50.078;14.854;2024-03-17T00:25:31;5.32;;;2.85;;
76475;SDS011;65308;50.078;14.854;2024-03-17T00:27:58;7.32;;;3.35;;
76475;SDS011;65308;50.078;14.854;2024-03-17T00:30:24;6.13;;;2.90;;
76475;SDS011;65308;50.078;14.854;2024-03-17T00:32:51;5.13;;;3.08;;
76475;SDS011;65308;50.078;14.854;2024-03-17T00:35:16;9.77;;;3.30;;
76475;SDS011;65308;50.078;14.854;2024-03-17T00:37:45;5.65;;;2.80;;
76475;SDS011;65308;50.078;14.854;2024-03-17T00:40:12;6.68;;;3.00;;
76475;SDS011;65308;50.078;14.854;2024-03-17T00:42:40;6.70;;;3.17;;
76475;SDS011;65308;50.078;14.854;2024-03-17T00:45:06;7.10;;;3.03;;
76475;SDS011;65308;50.078;14.854;2024-03-17T00:47:33;6.72;;;3.00;;
76475;SDS011;65308;50.078;14.854;2024-03-17T00:49:58;7.78;;;2.83;;
76475;SDS011;65308;50.078;14.854;2024-03-17T00:52:25;6.38;;;2.92;;
76475;SDS011;65308;50.078;14.854;2024-03-17T00:54:52;5.22;;;2.85;;
76475;SDS011;65308;50.078;14.854;2024-03-17T00:57:20;7.25;;;2.97;;
76475;SDS011;65308;50.078;14.854;2024-03-17T00:59:46;6.53;;;2.95;;
76475;SDS011;65308;50.078;14.854;2024-03-17T01:02:13;5.90;;;3.03;;
76475;SDS011;65308;50.078;14.854;2024-03-17T01:04:41;6.05;;;2.80;;
76475;SDS011;65308;50.078;14.854;2024-03-17T01:07:08;5.43;;;2.78;;
76475;SDS011;65308;50.078;14.854;2024-03-17T01:09:34;6.70;;;2.95;;
76475;SDS011;65308;50.078;14.854;2024-03-17T01:12:01;5.63;;;2.90;;
76475;SDS011;65308;50.078;14.854;2024-03-17T01:14:28;4.57;;;2.53;;
76475;SDS011;65308;50.078;14.854;2024-03-17T01:16:54;5.85;;;3.30;;
76475;SDS011;65308;50.078;14.854;2024-03-17T01:19:20;6.35;;;2.95;;
76475;SDS011;65308;50.078;14.854;2024-03-17T01:21:47;6.90;;;2.90;;
76475;SDS011;65308;50.078;14.854;2024-03-17T01:24:12;5.97;;;2.70;;
76475;SDS011;65308;50.078;14.854;2024-03-17T01:26:39;6.80;;;3.20;;
76475;SDS011;65308;50.078;14.854;2024-03-17T01:29:05;6.68;;;3.40;;
76475;SDS011;65308;50.078;14.854;2024-03-17T01:31:33;5.45;;;2.67;;
76475;SDS011;65308;50.078;14.854;2024-03-17T01:33:59;4.93;;;2.60;;
76475;SDS011;65308;50.078;14.854;2024-03-17T01:36:26;6.65;;;2.70;;
76475;SDS011;65308;50.078;14.854;2024-03-17T01:38:51;7.15;;;3.15;;
76475;SDS011;65308;50.078;14.854;2024-03-17T01:41:18;6.07;;;2.63;;
76475;SDS011;65308;50.078;14.854;2024-03-17T01:43:44;5.18;;;2.50;;
76475;SDS011;65308;50.078;14.854;2024-03-17T01:46:11;7.28;;;2.60;;
76475;SDS011;65308;50.078;14.854;2024-03-17T01:48:40;5.32;;;2.65;;
76475;SDS011;65308;50.078;14.854;2024-03-17T01:51:07;8.02;;;2.70;;
76475;SDS011;65308;50.078;14.854;2024-03-17T01:53:35;4.65;;;2.45;;
76475;SDS011;65308;50.078;14.854;2024-03-17T01:58:29;4.80;;;2.10;;
76475;SDS011;65308;50.078;14.854;2024-03-17T02:00:56;7.93;;;2.40;;
76475;SDS011;65308;50.078;14.854;2024-03-17T02:03:22;4.72;;;2.80;;
76475;SDS011;65308;50.078;14.854;2024-03-17T02:05:50;4.63;;;2.55;;
76475;SDS011;65308;50.078;14.854;2024-03-17T02:08:16;5.78;;;2.40;;
76475;SDS011;65308;50.078;14.854;2024-03-17T02:10:43;7.70;;;2.70;;
76475;SDS011;65308;50.078;14.854;2024-03-17T02:13:08;4.85;;;2.38;;
76475;SDS011;65308;50.078;14.854;2024-03-17T02:15:35;7.95;;;2.97;;
76475;SDS011;65308;50.078;14.854;2024-03-17T02:18:01;5.78;;;2.55;;
76475;SDS011;65308;50.078;14.854;2024-03-17T02:20:28;7.13;;;2.58;;
76475;SDS011;65308;50.078;14.854;2024-03-17T02:23:10;8.00;;;3.28;;
76475;SDS011;65308;50.078;14.854;2024-03-17T02:25:37;7.63;;;3.10;;
76475;SDS011;65308;50.078;14.854;2024-03-17T02:28:02;4.20;;;2.38;;
76475;SDS011;65308;50.078;14.854;2024-03-17T02:30:29;7.20;;;2.58;;
76475;SDS011;65308;50.078;14.854;2024-03-17T02:32:55;5.07;;;2.60;;
76475;SDS011;65308;50.078;14.854;2024-03-17T02:35:24;5.18;;;2.17;;
76475;SDS011;65308;50.078;14.854;2024-03-17T02:37:50;5.65;;;2.30;;
76475;SDS011;65308;50.078;14.854;2024-03-17T02:40:18;4.72;;;2.40;;
76475;SDS011;65308;50.078;14.854;2024-03-17T02:42:44;4.85;;;2.33;;
76475;SDS011;65308;50.078;14.854;2024-03-17T02:45:11;5.18;;;1.88;;
76475;SDS011;65308;50.078;14.854;2024-03-17T02:47:38;4.57;;;2.30;;
76475;SDS011;65308;50.078;14.854;2024-03-17T02:50:05;3.35;;;1.75;;
76475;SDS011;65308;50.078;14.854;2024-03-17T02:52:32;5.63;;;1.98;;
76475;SDS011;65308;50.078;14.854;2024-03-17T02:54:58;6.43;;;2.28;;
76475;SDS011;65308;50.078;14.854;2024-03-17T02:57:26;4.97;;;2.10;;
76475;SDS011;65308;50.078;14.854;2024-03-17T02:59:54;3.97;;;2.30;;
76475;SDS011;65308;50.078;14.854;2024-03-17T03:02:20;4.45;;;2.25;;
76475;SDS011;65308;50.078;14.854;2024-03-17T03:04:46;3.75;;;1.95;;
76475;SDS011;65308;50.078;14.854;2024-03-17T03:07:13;4.68;;;2.20;;
76475;SDS011;65308;50.078;14.854;2024-03-17T03:09:39;3.35;;;1.98;;
76475;SDS011;65308;50.078;14.854;2024-03-17T03:12:06;5.60;;;2.03;;
76475;SDS011;65308;50.078;14.854;2024-03-17T03:14:34;4.47;;;2.10;;
76475;SDS011;65308;50.078;14.854;2024-03-17T03:17:01;3.03;;;1.90;;
76475;SDS011;65308;50.078;14.854;2024-03-17T03:19:28;6.30;;;2.72;;
76475;SDS011;65308;50.078;14.854;2024-03-17T03:21:55;4.90;;;2.20;;
76475;SDS011;65308;50.078;14.854;2024-03-17T03:24:22;5.80;;;2.45;;
76475;SDS011;65308;50.078;14.854;2024-03-17T03:26:48;5.20;;;2.47;;
76475;SDS011;65308;50.078;14.854;2024-03-17T03:29:15;4.95;;;2.45;;
76475;SDS011;65308;50.078;14.854;2024-03-17T03:31:43;9.82;;;3.63;;
76475;SDS011;65308;50.078;14.854;2024-03-17T03:36:37;5.25;;;2.22;;
76475;SDS011;65308;50.078;14.854;2024-03-17T03:39:04;4.38;;;2.40;;
76475;SDS011;65308;50.078;14.854;2024-03-17T03:41:31;8.15;;;2.55;;
76475;SDS011;65308;50.078;14.854;2024-03-17T03:43:59;3.67;;;2.10;;
76475;SDS011;65308;50.078;14.854;2024-03-17T03:46:25;4.10;;;2.22;;
76475;SDS011;65308;50.078;14.854;2024-03-17T03:48:53;4.10;;;2.45;;
76475;SDS011;65308;50.078;14.854;2024-03-17T03:51:20;4.10;;;2.50;;
76475;SDS011;65308;50.078;14.854;2024-03-17T03:53:47;4.50;;;2.22;;
76475;SDS011;65308;50.078;14.854;2024-03-17T03:56:13;5.78;;;2.30;;
76475;SDS011;65308;50.078;14.854;2024-03-17T03:58:40;4.43;;;2.50;;
76475;SDS011;65308;50.078;14.854;2024-03-17T04:01:08;4.43;;;2.45;;
76475;SDS011;65308;50.078;14.854;2024-03-17T04:03:36;4.20;;;2.20;;
76475;SDS011;65308;50.078;14.854;2024-03-17T04:06:05;6.13;;;2.33;;
76475;SDS011;65308;50.078;14.854;2024-03-17T04:08:33;6.18;;;2.75;;
76475;SDS011;65308;50.078;14.854;2024-03-17T04:11:00;3.72;;;2.05;;
76475;SDS011;65308;50.078;14.854;2024-03-17T04:13:27;4.35;;;1.85;;
76475;SDS011;65308;50.078;14.854;2024-03-17T04:15:55;4.43;;;2.35;;
76475;SDS011;65308;50.078;14.854;2024-03-17T04:18:22;4.78;;;2.60;;
76475;SDS011;65308;50.078;14.854;2024-03-17T04:20:49;6.00;;;2.30;;
76475;SDS011;65308;50.078;14.854;2024-03-17T04:23:18;5.32;;;2.80;;
76475;SDS011;65308;50.078;14.854;2024-03-17T04:25:44;4.68;;;2.28;;
76475;SDS011;65308;50.078;14.854;2024-03-17T04:28:11;3.10;;;1.98;;
76475;SDS011;65308;50.078;14.854;2024-03-17T04:30:38;3.83;;;2.28;;
76475;SDS011;65308;50.078;14.854;2024-03-17T04:33:04;4.13;;;2.17;;
76475;SDS011;65308;50.078;14.854;2024-03-17T04:35:34;4.32;;;2.28;;
76475;SDS011;65308;50.078;14.854;2024-03-17T04:38:01;4.43;;;2.20;;
76475;SDS011;65308;50.078;14.854;2024-03-17T04:40:29;5.22;;;2.30;;
76475;SDS011;65308;50.078;14.854;2024-03-17T04:42:56;4.90;;;1.88;;
76475;SDS011;65308;50.078;14.854;2024-03-17T04:45:23;5.10;;;2.03;;
76475;SDS011;65308;50.078;14.854;2024-03-17T04:47:50;4.93;;;2.00;;
76475;SDS011;65308;50.078;14.854;2024-03-17T04:50:16;4.82;;;2.00;;
76475;SDS011;65308;50.078;14.854;2024-03-17T04:52:43;3.58;;;1.73;;
76475;SDS011;65308;50.078;14.854;2024-03-17T04:55:10;6.00;;;2.38;;
76475;SDS011;65308;50.078;14.854;2024-03-17T04:57:38;3.78;;;2.05;;
76475;SDS011;65308;50.078;14.854;2024-03-17T05:02:32;6.97;;;2.17;;
76475;SDS011;65308;50.078;14.854;2024-03-17T05:04:58;5.10;;;2.03;;
76475;SDS011;65308;50.078;14.854;2024-03-17T05:07:25;2.90;;;1.77;;
76475;SDS011;65308;50.078;14.854;2024-03-17T05:09:52;3.70;;;1.98;;
76475;SDS011;65308;50.078;14.854;2024-03-17T05:12:18;5.60;;;2.00;;
76475;SDS011;65308;50.078;14.854;2024-03-17T05:14:46;3.90;;;1.77;;
76475;SDS011;65308;50.078;14.854;2024-03-17T05:17:13;4.03;;;2.17;;
76475;SDS011;65308;50.078;14.854;2024-03-17T05:19:40;3.47;;;1.73;;
76475;SDS011;65308;50.078;14.854;2024-03-17T05:22:07;3.90;;;1.95;;
76475;SDS011;65308;50.078;14.854;2024-03-17T05:24:33;3.67;;;2.08;;
76475;SDS011;65308;50.078;14.854;2024-03-17T05:27:00;4.38;;;2.30;;
76475;SDS011;65308;50.078;14.854;2024-03-17T05:29:27;5.80;;;2.22;;
76475;SDS011;65308;50.078;14.854;2024-03-17T05:31:55;3.88;;;1.90;;
76475;SDS011;65308;50.078;14.854;2024-03-17T05:34:22;4.30;;;2.20;;
76475;SDS011;65308;50.078;14.854;2024-03-17T05:36:49;3.67;;;1.80;;
76475;SDS011;65308;50.078;14.854;2024-03-17T05:39:16;4.63;;;2.30;;
76475;SDS011;65308;50.078;14.854;2024-03-17T05:41:43;4.00;;;2.20;;
76475;SDS011;65308;50.078;14.854;2024-03-17T05:44:09;5.18;;;2.05;;
76475;SDS011;65308;50.078;14.854;2024-03-17T05:46:36;6.63;;;2.90;;
76475;SDS011;65308;50.078;14.854;2024-03-17T05:49:04;4.38;;;2.35;;
76475;SDS011;65308;50.078;14.854;2024-03-17T05:51:31;3.83;;;2.00;;
76475;SDS011;65308;50.078;14.854;2024-03-17T05:53:58;4.18;;;2.20;;
76475;SDS011;65308;50.078;14.854;2024-03-17T05:56:25;4.95;;;2.05;;
76475;SDS011;65308;50.078;14.854;2024-03-17T05:58:51;5.03;;;2.35;;
76475;SDS011;65308;50.078;14.854;2024-03-17T06:01:18;4.53;;;2.30;;
76475;SDS011;65308;50.078;14.854;2024-03-17T06:03:46;3.78;;;2.22;;
76475;SDS011;65308;50.078;14.854;2024-03-17T06:06:14;3.65;;;2.03;;
76475;SDS011;65308;50.078;14.854;2024-03-17T06:08:40;5.03;;;2.30;;
76475;SDS011;65308;50.078;14.854;2024-03-17T06:11:07;5.10;;;2.40;;
76475;SDS011;65308;50.078;14.854;2024-03-17T06:13:34;4.65;;;2.42;;
76475;SDS011;65308;50.078;14.854;2024-03-17T06:16:02;5.35;;;2.78;;
76475;SDS011;65308;50.078;14.854;2024-03-17T06:18:30;4.68;;;2.33;;
76475;SDS011;65308;50.078;14.854;2024-03-17T06:20:56;4.70;;;2.33;;
76475;SDS011;65308;50.078;14.854;2024-03-17T06:23:25;5.03;;;2.45;;
76475;SDS011;65308;50.078;14.854;2024-03-17T06:25:53;4.85;;;2.50;;
76475;SDS011;65308;50.078;14.854;2024-03-17T06:28:20;5.35;;;2.75;;
76475;SDS011;65308;50.078;14.854;2024-03-17T06:30:54;5.10;;;2.47;;
76475;SDS011;65308;50.078;14.854;2024-03-17T06:33:24;5.78;;;2.70;;
76475;SDS011;65308;50.078;14.854;2024-03-17T06:35:51;4.05;;;2.42;;
76475;SDS011;65308;50.078;14.854;2024-03-17T06:38:17;4.22;;;2.60;;
76475;SDS011;65308;50.078;14.854;2024-03-17T06:40:49;4.68;;;2.63;;
76475;SDS011;65308;50.078;14.854;2024-03-17T06:43:16;4.32;;;2.65;;
76475;SDS011;65308;50.078;14.854;2024-03-17T06:45:43;6.70;;;3.08;;
76475;SDS011;65308;50.078;14.854;2024-03-17T06:48:09;4.38;;;2.53;;
76475;SDS011;65308;50.078;14.854;2024-03-17T06:50:37;4.65;;;2.80;;
76475;SDS011;65308;50.078;14.854;2024-03-17T06:53:05;5.00;;;2.90;;
76475;SDS011;65308;50.078;14.854;2024-03-17T06:55:33;5.20;;;2.75;;
76475;SDS011;65308;50.078;14.854;2024-03-17T06:58:01;4.55;;;2.50;;
76475;SDS011;65308;50.078;14.854;2024-03-17T07:00:28;4.45;;;2.90;;
76475;SDS011;65308;50.078;14.854;2024-03-17T07:02:55;5.68;;;3.03;;
76475;SDS011;65308;50.078;14.854;2024-03-17T07:05:22;8.23;;;3.50;;
76475;SDS011;65308;50.078;14.854;2024-03-17T07:07:49;5.68;;;3.10;;
76475;SDS011;65308;50.078;14.854;2024-03-17T07:10:16;4.60;;;2.83;;
76475;SDS011;65308;50.078;14.854;2024-03-17T07:12:43;5.18;;;3.05;;
76475;SDS011;65308;50.078;14.854;2024-03-17T07:15:11;4.75;;;3.00;;
76475;SDS011;65308;50.078;14.854;2024-03-17T07:17:38;5.35;;;3.10;;
76475;SDS011;65308;50.078;14.854;2024-03-17T07:20:05;5.85;;;2.90;;
76475;SDS011;65308;50.078;14.854;2024-03-17T07:22:34;5.63;;;3.50;;
76475;SDS011;65308;50.078;14.854;2024-03-17T07:25:01;6.13;;;3.67;;
76475;SDS011;65308;50.078;14.854;2024-03-17T07:27:27;5.35;;;3.65;;
76475;SDS011;65308;50.078;14.854;2024-03-17T07:29:54;5.07;;;3.22;;
76475;SDS011;65308;50.078;14.854;2024-03-17T07:32:22;5.70;;;3.40;;
76475;SDS011;65308;50.078;14.854;2024-03-17T07:34:49;4.90;;;3.42;;
76475;SDS011;65308;50.078;14.854;2024-03-17T07:37:16;6.40;;;4.00;;
76475;SDS011;65308;50.078;14.854;2024-03-17T07:39:42;4.95;;;3.30;;
76475;SDS011;65308;50.078;14.854;2024-03-17T07:42:09;5.63;;;3.20;;
76475;SDS011;65308;50.078;14.854;2024-03-17T07:44:37;6.05;;;3.60;;
76475;SDS011;65308;50.078;14.854;2024-03-17T07:47:04;5.70;;;2.95;;
76475;SDS011;65308;50.078;14.854;2024-03-17T07:49:33;4.53;;;2.90;;
76475;SDS011;65308;50.078;14.854;2024-03-17T07:52:00;6.43;;;3.85;;
76475;SDS011;65308;50.078;14.854;2024-03-17T07:54:27;5.95;;;3.47;;
76475;SDS011;65308;50.078;14.854;2024-03-17T07:56:54;6.72;;;3.55;;
76475;SDS011;65308;50.078;14.854;2024-03-17T07:59:20;6.13;;;3.72;;
76475;SDS011;65308;50.078;14.854;2024-03-17T08:01:47;5.85;;;3.70;;
76475;SDS011;65308;50.078;14.854;2024-03-17T08:04:14;4.97;;;3.30;;
76475;SDS011;65308;50.078;14.854;2024-03-17T08:06:42;5.50;;;3.80;;
76475;SDS011;65308;50.078;14.854;2024-03-17T08:09:09;6.53;;;4.22;;
76475;SDS011;65308;50.078;14.854;2024-03-17T08:11:37;5.13;;;3.75;;
76475;SDS011;65308;50.078;14.854;2024-03-17T08:14:08;7.82;;;4.10;;
76475;SDS011;65308;50.078;14.854;2024-03-17T08:16:35;6.53;;;3.88;;
76475;SDS011;65308;50.078;14.854;2024-03-17T08:19:02;6.65;;;4.43;;
76475;SDS011;65308;50.078;14.854;2024-03-17T08:21:28;6.55;;;4.80;;
76475;SDS011;65308;50.078;14.854;2024-03-17T08:23:56;6.88;;;4.22;;
76475;SDS011;65308;50.078;14.854;2024-03-17T08:26:24;4.85;;;3.70;;
76475;SDS011;65308;50.078;14.854;2024-03-17T08:28:50;5.68;;;3.92;;
76475;SDS011;65308;50.078;14.854;2024-03-17T08:31:17;6.63;;;4.97;;
76475;SDS011;65308;50.078;14.854;2024-03-17T08:33:43;6.32;;;4.75;;
76475;SDS011;65308;50.078;14.854;2024-03-17T08:36:10;7.63;;;5.00;;
76475;SDS011;65308;50.078;14.854;2024-03-17T08:38:37;6.45;;;5.25;;
76475;SDS011;65308;50.078;14.854;2024-03-17T08:43:32;6.90;;;5.32;;
76475;SDS011;65308;50.078;14.854;2024-03-17T08:48:28;8.55;;;5.43;;
76475;SDS011;65308;50.078;14.854;2024-03-17T08:50:56;7.15;;;5.28;;
76475;SDS011;65308;50.078;14.854;2024-03-17T08:53:23;8.10;;;5.93;;
76475;SDS011;65308;50.078;14.854;2024-03-17T08:55:52;7.22;;;5.28;;
76475;SDS011;65308;50.078;14.854;2024-03-17T08:58:20;6.18;;;4.70;;
76475;SDS011;65308;50.078;14.854;2024-03-17T09:00:47;11.32;;;7.65;;
76475;SDS011;65308;50.078;14.854;2024-03-17T09:03:14;6.15;;;4.00;;
76475;SDS011;65308;50.078;14.854;2024-03-17T09:05:44;7.07;;;4.03;;
76475;SDS011;65308;50.078;14.854;2024-03-17T09:08:14;5.53;;;4.03;;
76475;SDS011;65308;50.078;14.854;2024-03-17T09:10:43;8.82;;;5.22;;
76475;SDS011;65308;50.078;14.854;2024-03-17T09:15:39;6.68;;;4.10;;
76475;SDS011;65308;50.078;14.854;2024-03-17T09:18:06;6.32;;;4.05;;
76475;SDS011;65308;50.078;14.854;2024-03-17T09:20:33;7.35;;;4.15;;
76475;SDS011;65308;50.078;14.854;2024-03-17T09:22:59;6.53;;;3.75;;
76475;SDS011;65308;50.078;14.854;2024-03-17T09:25:26;6.85;;;3.53;;
76475;SDS011;65308;50.078;14.854;2024-03-17T09:27:52;7.40;;;4.30;;
76475;SDS011;65308;50.078;14.854;2024-03-17T09:30:19;7.93;;;4.28;;
76475;SDS011;65308;50.078;14.854;2024-03-17T09:32:47;7.63;;;3.90;;
76475;SDS011;65308;50.078;14.854;2024-03-17T09:35:14;7.78;;;4.07;;
76475;SDS011;65308;50.078;14.854;2024-03-17T09:37:40;5.53;;;3.45;;
76475;SDS011;65308;50.078;14.854;2024-03-17T09:40:08;6.53;;;3.40;;
76475;SDS011;65308;50.078;14.854;2024-03-17T09:42:40;5.43;;;3.78;;
76475;SDS011;65308;50.078;14.854;2024-03-17T09:45:07;6.13;;;3.60;;
76475;SDS011;65308;50.078;14.854;2024-03-17T09:47:36;5.50;;;3.25;;
76475;SDS011;65308;50.078;14.854;2024-03-17T09:50:05;7.03;;;3.38;;
76475;SDS011;65308;50.078;14.854;2024-03-17T09:52:39;5.10;;;3.28;;
76475;SDS011;65308;50.078;14.854;2024-03-17T09:55:09;6.55;;;3.55;;
76475;SDS011;65308;50.078;14.854;2024-03-17T09:57:39;5.55;;;3.20;;
76475;SDS011;65308;50.078;14.854;2024-03-17T10:00:09;6.95;;;3.40;;
76475;SDS011;65308;50.078;14.854;2024-03-17T10:02:44;6.70;;;3.72;;
76475;SDS011;65308;50.078;14.854;2024-03-17T10:05:21;9.25;;;3.40;;
76475;SDS011;65308;50.078;14.854;2024-03-17T10:07:50;7.88;;;3.63;;
76475;SDS011;65308;50.078;14.854;2024-03-17T10:10:18;9.38;;;3.53;;
76475;SDS011;65308;50.078;14.854;2024-03-17T10:12:48;5.80;;;3.40;;
76475;SDS011;65308;50.078;14.854;2024-03-17T10:15:16;6.10;;;3.28;;
76475;SDS011;65308;50.078;14.854;2024-03-17T10:17:43;6.32;;;3.88;;
76475;SDS011;65308;50.078;14.854;2024-03-17T10:20:13;7.20;;;3.30;;
76475;SDS011;65308;50.078;14.854;2024-03-17T10:25:29;5.13;;;3.40;;
76475;SDS011;65308;50.078;14.854;2024-03-17T10:27:56;6.47;;;3.47;;
76475;SDS011;65308;50.078;14.854;2024-03-17T10:30:23;6.68;;;3.60;;
76475;SDS011;65308;50.078;14.854;2024-03-17T10:32:55;6.07;;;3.28;;
76475;SDS011;65308;50.078;14.854;2024-03-17T10:35:26;6.18;;;3.58;;
76475;SDS011;65308;50.078;14.854;2024-03-17T10:37:57;6.95;;;3.80;;
76475;SDS011;65308;50.078;14.854;2024-03-17T10:40:27;7.38;;;3.65;;
76475;SDS011;65308;50.078;14.854;2024-03-17T10:42:56;5.70;;;3.60;;
76475;SDS011;65308;50.078;14.854;2024-03-17T10:45:23;6.97;;;3.85;;
76475;SDS011;65308;50.078;14.854;2024-03-17T10:47:51;7.80;;;4.65;;
76475;SDS011;65308;50.078;14.854;2024-03-17T10:50:19;6.55;;;3.70;;
76475;SDS011;65308;50.078;14.854;2024-03-17T10:52:47;6.35;;;3.80;;
76475;SDS011;65308;50.078;14.854;2024-03-17T10:55:21;7.35;;;3.67;;
76475;SDS011;65308;50.078;14.854;2024-03-17T10:57:50;7.75;;;3.50;;
76475;SDS011;65308;50.078;14.854;2024-03-17T11:00:18;6.57;;;3.47;;
76475;SDS011;65308;50.078;14.854;2024-03-17T11:02:47;5.95;;;3.90;;
76475;SDS011;65308;50.078;14.854;2024-03-17T11:05:16;5.25;;;3.53;;
76475;SDS011;65308;50.078;14.854;2024-03-17T11:07:46;5.75;;;3.90;;
76475;SDS011;65308;50.078;14.854;2024-03-17T11:10:15;7.32;;;3.55;;
76475;SDS011;65308;50.078;14.854;2024-03-17T11:12:44;8.07;;;3.70;;
76475;SDS011;65308;50.078;14.854;2024-03-17T11:21:02;6.85;;;3.85;;
76475;SDS011;65308;50.078;14.854;2024-03-17T11:23:35;7.25;;;4.30;;
76475;SDS011;65308;50.078;14.854;2024-03-17T11:26:03;5.63;;;3.70;;
76475;SDS011;65308;50.078;14.854;2024-03-17T11:28:50;6.93;;;3.80;;
76475;SDS011;65308;50.078;14.854;2024-03-17T11:34:31;7.40;;;4.20;;
76475;SDS011;65308;50.078;14.854;2024-03-17T11:37:02;7.05;;;4.05;;
76475;SDS011;65308;50.078;14.854;2024-03-17T11:39:49;7.80;;;4.38;;
76475;SDS011;65308;50.078;14.854;2024-03-17T11:42:20;7.38;;;4.28;;
76475;SDS011;65308;50.078;14.854;2024-03-17T11:47:39;5.78;;;3.58;;
76475;SDS011;65308;50.078;14.854;2024-03-17T11:50:08;7.05;;;4.20;;
76475;SDS011;65308;50.078;14.854;2024-03-17T11:52:37;7.18;;;4.25;;
76475;SDS011;65308;50.078;14.854;2024-03-17T11:55:14;7.35;;;3.70;;
76475;SDS011;65308;50.078;14.854;2024-03-17T11:57:41;7.40;;;4.32;;
76475;SDS011;65308;50.078;14.854;2024-03-17T12:00:18;7.93;;;4.43;;
76475;SDS011;65308;50.078;14.854;2024-03-17T12:02:47;6.95;;;3.75;;
76475;SDS011;65308;50.078;14.854;2024-03-17T12:05:14;5.20;;;3.30;;
76475;SDS011;65308;50.078;14.854;2024-03-17T12:07:41;6.13;;;3.38;;
76475;SDS011;65308;50.078;14.854;2024-03-17T12:10:09;5.68;;;3.45;;
76475;SDS011;65308;50.078;14.854;2024-03-17T12:12:38;5.57;;;3.50;;
76475;SDS011;65308;50.078;14.854;2024-03-17T12:15:11;7.50;;;3.60;;
76475;SDS011;65308;50.078;14.854;2024-03-17T12:17:43;6.10;;;3.58;;
76475;SDS011;65308;50.078;14.854;2024-03-17T12:20:15;5.45;;;3.05;;
76475;SDS011;65308;50.078;14.854;2024-03-17T12:22:43;5.45;;;3.25;;
76475;SDS011;65308;50.078;14.854;2024-03-17T12:25:09;4.72;;;2.95;;
76475;SDS011;65308;50.078;14.854;2024-03-17T12:27:43;4.43;;;3.22;;
76475;SDS011;65308;50.078;14.854;2024-03-17T12:30:09;6.32;;;3.38;;
76475;SDS011;65308;50.078;14.854;2024-03-17T12:32:36;7.50;;;3.78;;
76475;SDS011;65308;50.078;14.854;2024-03-17T12:35:02;5.85;;;3.95;;
76475;SDS011;65308;50.078;14.854;2024-03-17T12:37:42;5.60;;;3.50;;
76475;SDS011;65308;50.078;14.854;2024-03-17T12:40:15;6.63;;;3.97;;
76475;SDS011;65308;50.078;14.854;2024-03-17T12:42:47;6.38;;;3.80;;
76475;SDS011;65308;50.078;14.854;2024-03-17T12:45:13;7.00;;;3.78;;
76475;SDS011;65308;50.078;14.854;2024-03-17T12:47:40;5.45;;;3.63;;
76475;SDS011;65308;50.078;14.854;2024-03-17T12:50:10;6.95;;;3.53;;
76475;SDS011;65308;50.078;14.854;2024-03-17T12:55:17;5.50;;;3.70;;
76475;SDS011;65308;50.078;14.854;2024-03-17T12:58:06;6.93;;;3.63;;
76475;SDS011;65308;50.078;14.854;2024-03-17T13:00:56;5.15;;;3.30;;
76475;SDS011;65308;50.078;14.854;2024-03-17T13:03:24;6.07;;;3.65;;
76475;SDS011;65308;50.078;14.854;2024-03-17T13:08:19;4.78;;;2.95;;
76475;SDS011;65308;50.078;14.854;2024-03-17T13:10:46;5.38;;;2.97;;
76475;SDS011;65308;50.078;14.854;2024-03-17T13:13:12;4.40;;;2.70;;
76475;SDS011;65308;50.078;14.854;2024-03-17T13:15:40;5.43;;;3.20;;
76475;SDS011;65308;50.078;14.854;2024-03-17T13:18:08;4.78;;;3.05;;
76475;SDS011;65308;50.078;14.854;2024-03-17T13:20:34;5.38;;;2.83;;
76475;SDS011;65308;50.078;14.854;2024-03-17T13:23:01;5.85;;;3.20;;
76475;SDS011;65308;50.078;14.854;2024-03-17T13:25:30;4.50;;;3.22;;
76475;SDS011;65308;50.078;14.854;2024-03-17T13:27:59;5.80;;;3.70;;
76475;SDS011;65308;50.078;14.854;2024-03-17T13:30:28;5.82;;;3.42;;
76475;SDS011;65308;50.078;14.854;2024-03-17T13:32:55;7.55;;;3.50;;
76475;SDS011;65308;50.078;14.854;2024-03-17T13:35:23;6.10;;;3.50;;
76475;SDS011;65308;50.078;14.854;2024-03-17T13:37:51;5.70;;;3.55;;
76475;SDS011;65308;50.078;14.854;2024-03-17T13:42:47;5.55;;;3.30;;
76475;SDS011;65308;50.078;14.854;2024-03-17T13:45:15;5.88;;;3.10;;
76475;SDS011;65308;50.078;14.854;2024-03-17T13:50:12;4.78;;;3.25;;
76475;SDS011;65308;50.078;14.854;2024-03-17T13:52:39;6.40;;;3.42;;
76475;SDS011;65308;50.078;14.854;2024-03-17T13:55:06;6.65;;;3.45;;
76475;SDS011;65308;50.078;14.854;2024-03-17T13:57:40;6.38;;;2.90;;
76475;SDS011;65308;50.078;14.854;2024-03-17T14:00:09;5.68;;;3.10;;
76475;SDS011;65308;50.078;14.854;2024-03-17T14:02:40;6.18;;;3.00;;
76475;SDS011;65308;50.078;14.854;2024-03-17T14:05:07;5.07;;;3.10;;
76475;SDS011;65308;50.078;14.854;2024-03-17T14:07:38;4.45;;;3.08;;
76475;SDS011;65308;50.078;14.854;2024-03-17T14:10:05;5.25;;;3.05;;
76475;SDS011;65308;50.078;14.854;2024-03-17T14:12:33;4.88;;;3.40;;
76475;SDS011;65308;50.078;14.854;2024-03-17T14:15:00;6.63;;;3.00;;
76475;SDS011;65308;50.078;14.854;2024-03-17T14:17:28;5.47;;;2.92;;
76475;SDS011;65308;50.078;14.854;2024-03-17T14:19:55;6.45;;;3.45;;
76475;SDS011;65308;50.078;14.854;2024-03-17T14:22:21;6.38;;;3.50;;
76475;SDS011;65308;50.078;14.854;2024-03-17T14:24:48;7.65;;;3.33;;
76475;SDS011;65308;50.078;14.854;2024-03-17T14:27:16;4.28;;;2.80;;
76475;SDS011;65308;50.078;14.854;2024-03-17T14:29:43;6.18;;;3.10;;
76475;SDS011;65308;50.078;14.854;2024-03-17T14:32:09;4.65;;;2.88;;
76475;SDS011;65308;50.078;14.854;2024-03-17T14:34:38;8.93;;;3.20;;
76475;SDS011;65308;50.078;14.854;2024-03-17T14:37:04;5.50;;;3.40;;
76475;SDS011;65308;50.078;14.854;2024-03-17T14:39:32;7.43;;;3.38;;
76475;SDS011;65308;50.078;14.854;2024-03-17T14:41:58;5.63;;;3.25;;
76475;SDS011;65308;50.078;14.854;2024-03-17T14:44:25;6.35;;;3.22;;
76475;SDS011;65308;50.078;14.854;2024-03-17T14:46:52;6.30;;;2.70;;
76475;SDS011;65308;50.078;14.854;2024-03-17T14:49:20;5.20;;;3.13;;
76475;SDS011;65308;50.078;14.854;2024-03-17T14:51:48;5.03;;;3.30;;
76475;SDS011;65308;50.078;14.854;2024-03-17T14:54:15;5.25;;;3.38;;
76475;SDS011;65308;50.078;14.854;2024-03-17T14:56:42;5.57;;;3.00;;
76475;SDS011;65308;50.078;14.854;2024-03-17T14:59:08;8.00;;;3.40;;
76475;SDS011;65308;50.078;14.854;2024-03-17T15:01:37;4.80;;;3.00;;
76475;SDS011;65308;50.078;14.854;2024-03-17T15:04:04;5.10;;;3.10;;
76475;SDS011;65308;50.078;14.854;2024-03-17T15:06:30;4.68;;;3.10;;
76475;SDS011;65308;50.078;14.854;2024-03-17T15:08:58;4.40;;;3.13;;
76475;SDS011;65308;50.078;14.854;2024-03-17T15:11:25;6.60;;;3.10;;
76475;SDS011;65308;50.078;14.854;2024-03-17T15:13:52;6.43;;;3.47;;
76475;SDS011;65308;50.078;14.854;2024-03-17T15:16:19;7.50;;;3.35;;